Cosmorama, Brazil
Current Conditions -  °F | °C
As of 10:00 PM on Saturday 25 Oct 2014 (Local Time) from SBSR Reporting Station
Overcast Overcast  
Wind Chill: 70°   Ceiling: 7000
Heat Index: 70°   Visibility: 6mi
Dew Point: 66°   Wind: 5mph
Humidity: 88%   Direction: 90°E
Pressure: 30"   Gusts: NA
Location:  20.48°S, 49.78°W
Report Text: SBSR 260000Z 09004KT 9000 SCT007 OVC070 21/19 Q1016
Loading
Personal Weather Stations






























Interactive Weather Map
Tropical Storm Tracking
New forecast layout! Learn more

10-Day Weather Forecast

Advertisements
Track Severe Weather on mobile